WetterOnline ( https://www.wetteronline.de )

Wetter aktuell Pfälzer Wald

Aktuelles Wetter: Weinbiet/Pfalz (557m)

6-stündlich | Neueste Meldungen
Ortszeit Temperatur Wetter
Mi, 17.04. 14:00 7.4° C bewölkt
Mi, 17.04. 8:00 2.7° C leichter Regen
Mi, 17.04. 2:00 3.8° C Regen
Di, 16.04. 20:00 5.9° C bewölkt
Di, 16.04. 14:00 5.4° C Sprühregen
Di, 16.04. 8:00 2.4° C bewölkt
Di, 16.04. 2:00 2.7° C Nebel
Mo, 15.04. 20:00 3.3° C leichter Regen
Ortszeit Temperatur Wetter
Mi, 17.04. 15:00 7.8° C bewölkt
Mi, 17.04. 14:40 7.1° C bedeckt
Mi, 17.04. 14:30 8.3° C bedeckt
Mi, 17.04. 14:20 8.3° C bedeckt
Mi, 17.04. 14:10 9.9° C bedeckt
Mi, 17.04. 14:00 7.4° C bewölkt
Mi, 17.04. 13:50 7.4° C bewölkt
Mi, 17.04. 13:30 6.8° C wolkig
Mi, 17.04. 13:00 6.5° C wolkig
Mi, 17.04. 12:30 8.4° C wolkig
Mi, 17.04. 12:00 6.3° C wolkig
Ortszeit Relative Feuchte Sichtweite
Mi, 17.04. 14:00 59% 50 km
Mi, 17.04. 8:00 96% 0.2 km
Mi, 17.04. 2:00 97% 1.3 km
Di, 16.04. 20:00 80% 65 km
Di, 16.04. 14:00 84% 30 km
Di, 16.04. 8:00 85% 40 km
Di, 16.04. 2:00 96% 0.6 km
Mo, 15.04. 20:00 94% 8 km
Ortszeit Relative Feuchte Sichtweite
Mi, 17.04. 15:00 54% 55 km
Mi, 17.04. 14:40 53% -
Mi, 17.04. 14:30 54% 60 km
Mi, 17.04. 14:20 54% -
Mi, 17.04. 14:10 57% -
Mi, 17.04. 14:00 59% 50 km
Mi, 17.04. 13:50 59% -
Mi, 17.04. 13:30 57% 55 km
Mi, 17.04. 13:00 61% 65 km
Mi, 17.04. 12:30 60% 40 km
Mi, 17.04. 12:00 77% 50 km
Ortszeit Niederschlagsmenge Niederschlagsart
Mi, 17.04. 14:00 0.1 l/m2 in 6 Std. Regen
Mi, 17.04. 8:00 2 l/m2 in 12 Std. Regen
Mi, 17.04. 2:00 0.2 l/m2 in 6 Std. Regen
Di, 16.04. 20:00 0.8 l/m2 in 12 Std. Regen
Di, 16.04. 14:00 0.8 l/m2 in 6 Std. Regen
Di, 16.04. 8:00 2 l/m2 in 12 Std. Regen
Di, 16.04. 2:00 2 l/m2 in 6 Std. Regen
Mo, 15.04. 20:00 1 l/m2 in 12 Std. Regen
Ortszeit Niederschlagsmenge Niederschlagsart
Mi, 17.04. 15:00 <0.05 l/m2 in 1 Std. Niederschlag
Mi, 17.04. 14:40 keine Meldung -
Mi, 17.04. 14:30 0.0 l/m2 in 30 Min -
Mi, 17.04. 14:20 keine Meldung -
Mi, 17.04. 14:10 keine Meldung -
Mi, 17.04. 14:00 0.0 l/m2 in 1 Std. Regen
Mi, 17.04. 13:50 keine Meldung -
Mi, 17.04. 13:30 0.0 l/m2 in 30 Min -
Mi, 17.04. 13:00 0.0 l/m2 in 1 Std. -
Mi, 17.04. 12:30 0.0 l/m2 in 30 Min -
Mi, 17.04. 12:00 0.0 l/m2 in 1 Std. -
Ortszeit Stärke Spitze Richtung
km/h Bft. km/h Grad Sektor
Mi, 17.04. 14:00 18 3 40 290° W
Mi, 17.04. 8:00 19 3 37 290° W
Mi, 17.04. 2:00 26 4 59 290° W
Di, 16.04. 20:00 43 6 90 270° W
Di, 16.04. 14:00 68 8 101 250° W
Di, 16.04. 8:00 59 7 78 250° W
Di, 16.04. 2:00 44 6 98 260° W
Mo, 15.04. 20:00 61 7 119 280° W
Ortszeit Stärke Spitze Richtung
km/h Bft. km/h Grad Sektor
Mi, 17.04. 15:00 20 4 33 250° W
Mi, 17.04. 14:40 20 4 - 250° W
Mi, 17.04. 14:30 14 3 29 260° W
Mi, 17.04. 14:20 14 3 - 260° W
Mi, 17.04. 14:10 15 3 - 290° W
Mi, 17.04. 14:00 18 3 36 290° W
Mi, 17.04. 13:50 18 3 - 290° W
Mi, 17.04. 13:30 14 3 36 330° NW
Mi, 17.04. 13:00 14 3 36 310° NW
Mi, 17.04. 12:30 14 3 29 300° NW
Mi, 17.04. 12:00 15 3 31 290° W
Ortszeit Untergrenze Bedeckung Gattung
total tief tief mittel hoch
Mi, 17.04. 14:00 1170 m 8/8 4/8 - - -
Mi, 17.04. 8:00 30 m 8/8 8/8 - - -
Mi, 17.04. 2:00 <30 m 8/8 0/8 - - -
Di, 16.04. 20:00 600 m 7/8 7/8 - - -
Di, 16.04. 14:00 300 m 8/8 8/8 - - -
Di, 16.04. 8:00 390 m 8/8 5/8 - - -
Di, 16.04. 2:00 60 m 6/8 6/8 - - -
Mo, 15.04. 20:00 210 m 8/8 8/8 - - -
Ortszeit Bedeckungsgrad in Achtel und Wolkenuntergrenze
Mi, 17.04. 15:00 5(1410m) 8(3000m) 8(3600m)
Mi, 17.04. 14:40 8
Mi, 17.04. 14:30 4(1140m) 8(2700m) 8(3900m)
Mi, 17.04. 14:20 4(1140m) 8(2700m) 8(3900m)
Mi, 17.04. 14:10 8
Mi, 17.04. 14:00 4(1170m) 8(3000m) 8(3900m)
Mi, 17.04. 13:50 4(1170m) 8(3000m) 8(3900m)
Mi, 17.04. 13:30 3(1110m) 7(3900m) 7(5100m)
Mi, 17.04. 13:00 4(960m) 5(1260m) 7(3300m)
Mi, 17.04. 12:30 2(900m) 4(1500m) 6(3300m)
Mi, 17.04. 12:00 4(630m) 7(3000m) 7(3900m)
Ortszeit Luftdruck NN (hPa) Tendenz (hPa in 3 Std.)
Mi, 17.04. 14:00 1011 - 0,4
Mi, 17.04. 8:00 1011 + 1,2
Mi, 17.04. 2:00 1009 + 0,7
Di, 16.04. 20:00 1007 + 1,0
Di, 16.04. 14:00 1006 - 0,6
Di, 16.04. 8:00 1008 - 0,4
Di, 16.04. 2:00 1009 - 0,8
Mo, 15.04. 20:00 1008 + 0,8
Ortszeit Luftdruck NN (hPa) Tendenz (hPa in 3 Std.)
Mi, 17.04. 15:00 1010 - 0,7
Mi, 17.04. 14:40 1011 keine Meldung
Mi, 17.04. 14:30 1010 - 0,6
Mi, 17.04. 14:20 1010 keine Meldung
Mi, 17.04. 14:10 1010 keine Meldung
Mi, 17.04. 14:00 1011 - 0,4
Mi, 17.04. 13:50 1011 keine Meldung
Mi, 17.04. 13:30 1011 - 0,2
Mi, 17.04. 13:00 1011 + 0,1
Mi, 17.04. 12:30 1011 + 0,5
Mi, 17.04. 12:00 1011 + 0,9
Ortszeit Schneehöhe (cm)
Mi, 17.04. 14:00 0
Mi, 17.04. 8:00 0
Mi, 17.04. 2:00 0
Di, 16.04. 20:00 0
Di, 16.04. 14:00 0
Di, 16.04. 8:00 0
Di, 16.04. 2:00 0
Mo, 15.04. 20:00 0
Ortszeit Schneehöhe (cm)
Mi, 17.04. 15:00 0
Mi, 17.04. 14:40 -
Mi, 17.04. 14:30 0
Mi, 17.04. 14:20 0
Mi, 17.04. 14:10 -
Mi, 17.04. 14:00 0
Mi, 17.04. 13:50 0
Mi, 17.04. 13:30 0
Mi, 17.04. 13:00 0
Mi, 17.04. 12:30 0
Mi, 17.04. 12:00 0
Link zu dieser Seite / Seite empfehlen

Das Wetter in ...